Terminal Aerodrome Forecast
Issued by NWS

Home | Current Version | Previous Version | Text Only | Print | Product List | Glossary On
Versions: 1 2 3 4 5 6 7 8 9 10 11 12 13 14 15 16 17 18 19
000
FTUS46 KSEW 270900 AAA
TAFHQM
TAF AMD
KHQM 270917Z 2709/2806 24006KT 5SM BR OVC002
     FM271200 00000KT 1/2SM FG OVC002
     FM271900 22006KT P6SM SCT250=

USA.gov is the U.S. government's official web portal to all federal, state and local government web resources and services.